As Victoria — A8SO7 — position and weather

sailwx.info

Track history (hours):
 
Tides and Currents Weather Stations Pressure Air Temp Water Temp Dewpoint Dewpoint Depression Visibility Wind Speed Wind Dir Waves Ship Positions

As Victoria

Last reported at 2014-Dec-20 18:31 UTC. Time now 2014-Dec-22 02:04 UTC.
Position N 50°33' E 000°16'.

Length 190 m; draft 10.8 m.

MMSI: 636091769.

Date/timePositionNaut miles runAvg speedWind from/ knotsBaromVisibWave heightAir tempDewpointWater temp
2014-Dec-20 18:31N 50°33' E 000°16'1010.8
2014-Dec-20 17:34N 50°36' E 000°32'1212.2
2014-Dec-20 16:34N 50°43' E 000°47'1713.1
2014-Dec-20 15:15N 50°54' E 001°09'912.6
2014-Dec-20 14:32N 50°60' E 001°20'1111.1
2014-Dec-20 13:34N 51°07' E 001°33'10 9.6
2014-Dec-20 12:34N 51°13' E 001°44'9 9.2
2014-Dec-20 11:33N 51°21' E 001°51'9 9.2
2014-Dec-20 10:34N 51°29' E 001°59'10 9.9
2014-Dec-20 09:34N 51°37' E 002°09'1010.4
2014-Dec-20 08:33N 51°44' E 002°21'184 9.0
2014-Dec-19 12:00N 54°30' E 004°36'16910.0 270 / 321003.010.8 4.0 9.5 8.6
2014-Dec-18 19:09N 56°51' E 007°19'610.1
2014-Dec-18 18:34N 56°56' E 007°26'1110.3
2014-Dec-18 17:32N 57°02' E 007°42'1310.6
2014-Dec-18 16:19N 57°09' E 008°02'1910.1
2014-Dec-18 14:26N 57°19' E 008°31'6210.5
2014-Dec-18 08:31N 57°45' E 010°16'1111.3
2014-Dec-18 07:34N 57°48' E 010°35'1310.8
2014-Dec-18 06:24N 57°43' E 010°56'1011.8
2014-Dec-18 05:34N 57°36' E 011°10'1211.5
2014-Dec-18 04:34N 57°28' E 011°26'1111.0
2014-Dec-18 03:33N 57°18' E 011°33'1111.2
2014-Dec-18 02:33N 57°07' E 011°40'1111.4
2014-Dec-18 01:33N 56°57' E 011°46'1211.6
2014-Dec-18 00:30N 56°45' E 011°53'1212.2
2014-Dec-17 23:32N 56°35' E 011°42'124 8.8
2014-Dec-17 09:30N 54°31' E 011°25'1110.7
2014-Dec-17 08:29N 54°27' E 011°42'1011.0
2014-Dec-17 07:33N 54°26' E 011°60'9 8.7
2014-Dec-17 06:33N 54°31' E 012°13'6010.0
2014-Dec-17 00:33N 55°00' E 013°44'2 4.1
2014-Dec-17 00:00N 55°00' E 013°48'818.1 250 / 311002.010.8 2.5 6.0 5.0
2014-Dec-16 23:33N 55°04' E 014°01'1010.5
2014-Dec-16 22:33N 55°11' E 014°14'1110.8
2014-Dec-16 21:33N 55°19' E 014°26'1110.7
2014-Dec-16 20:33N 55°27' E 014°38'1110.8
2014-Dec-16 19:33N 55°32' E 014°55'1111.0
2014-Dec-16 18:31N 55°37' E 015°13'1110.2
2014-Dec-16 17:29N 55°40' E 015°31'17610.0
2014-Dec-16 00:00N 57°24' E 019°48'103 8.6 210 / 251003.010.8 5.5 2.6
2014-Dec-15 12:00N 58°54' E 021°24'52 8.6 200 / 291003.0 5.4 5.5 2.2
2014-Dec-15 06:00N 59°30' E 022°36'1711.5 220 / 221007.0 2.2 5.0 2.8
2014-Dec-15 04:32N 59°36' E 023°07'1111.2
2014-Dec-15 03:34N 59°39' E 023°28'1111.2
2014-Dec-15 02:33N 59°42' E 023°49'1211.3
2014-Dec-15 01:28N 59°46' E 024°12'1111.7
2014-Dec-15 00:34N 59°48' E 024°33'5 8.1
2014-Dec-15 00:00N 59°48' E 024°42'5512.3 220 / 221009.010.8 3.5 2.4
2014-Dec-14 19:34N 60°01' E 026°28'11110.7
2014-Dec-14 09:11N 59°53' E 030°09'2 0.1
2014-Dec-12 19:19N 59°54' E 030°13'0 0.0
2014-Dec-11 10:33N 59°53' E 030°13'1 1.0
2014-Dec-11 09:32N 59°53' E 030°12'0 0.0
2014-Dec-11 08:29N 59°53' E 030°12'0 0.0
2014-Dec-11 07:29N 59°53' E 030°12'0 0.0
2014-Dec-11 02:32N 59°53' E 030°12'  
Track history (hours):
 
Tides and Currents Weather Stations Pressure Air Temp Water Temp Dewpoint Dewpoint Depression Visibility Wind Speed Wind Dir Waves Ship Positions

As Victoria

Last reported at 2014-Dec-20 18:31 UTC. Time now 2014-Dec-22 02:04 UTC.
Position N 50°33' E 000°16'.

Length 190 m; draft 10.8 m.

MMSI: 636091769.

Date/timePositionNaut miles runAvg speedWind from/ knotsBaromVisibWave heightAir tempDewpointWater temp
2014-Dec-20 18:31N 50°33' E 000°16'1010.8
2014-Dec-20 17:34N 50°36' E 000°32'1212.2
2014-Dec-20 16:34N 50°43' E 000°47'1713.1
2014-Dec-20 15:15N 50°54' E 001°09'912.6
2014-Dec-20 14:32N 50°60' E 001°20'1111.1
2014-Dec-20 13:34N 51°07' E 001°33'10 9.6
2014-Dec-20 12:34N 51°13' E 001°44'9 9.2
2014-Dec-20 11:33N 51°21' E 001°51'9 9.2
2014-Dec-20 10:34N 51°29' E 001°59'10 9.9
2014-Dec-20 09:34N 51°37' E 002°09'1010.4
2014-Dec-20 08:33N 51°44' E 002°21'184 9.0
2014-Dec-19 12:00N 54°30' E 004°36'16910.0 270 / 321003.010.8 4.0 9.5 8.6
2014-Dec-18 19:09N 56°51' E 007°19'610.1
2014-Dec-18 18:34N 56°56' E 007°26'1110.3
2014-Dec-18 17:32N 57°02' E 007°42'1310.6
2014-Dec-18 16:19N 57°09' E 008°02'1910.1
2014-Dec-18 14:26N 57°19' E 008°31'6210.5
2014-Dec-18 08:31N 57°45' E 010°16'1111.3
2014-Dec-18 07:34N 57°48' E 010°35'1310.8
2014-Dec-18 06:24N 57°43' E 010°56'1011.8
2014-Dec-18 05:34N 57°36' E 011°10'1211.5
2014-Dec-18 04:34N 57°28' E 011°26'1111.0
2014-Dec-18 03:33N 57°18' E 011°33'1111.2
2014-Dec-18 02:33N 57°07' E 011°40'1111.4
2014-Dec-18 01:33N 56°57' E 011°46'1211.6
2014-Dec-18 00:30N 56°45' E 011°53'1212.2
2014-Dec-17 23:32N 56°35' E 011°42'124 8.8
2014-Dec-17 09:30N 54°31' E 011°25'1110.7
2014-Dec-17 08:29N 54°27' E 011°42'1011.0
2014-Dec-17 07:33N 54°26' E 011°60'9 8.7
2014-Dec-17 06:33N 54°31' E 012°13'6010.0
2014-Dec-17 00:33N 55°00' E 013°44'2 4.1
2014-Dec-17 00:00N 55°00' E 013°48'818.1 250 / 311002.010.8 2.5 6.0 5.0
2014-Dec-16 23:33N 55°04' E 014°01'1010.5
2014-Dec-16 22:33N 55°11' E 014°14'1110.8
2014-Dec-16 21:33N 55°19' E 014°26'1110.7
2014-Dec-16 20:33N 55°27' E 014°38'1110.8
2014-Dec-16 19:33N 55°32' E 014°55'1111.0
2014-Dec-16 18:31N 55°37' E 015°13'1110.2
2014-Dec-16 17:29N 55°40' E 015°31'17610.0
2014-Dec-16 00:00N 57°24' E 019°48'103 8.6 210 / 251003.010.8 5.5 2.6
2014-Dec-15 12:00N 58°54' E 021°24'52 8.6 200 / 291003.0 5.4 5.5 2.2
2014-Dec-15 06:00N 59°30' E 022°36'1711.5 220 / 221007.0 2.2 5.0 2.8
2014-Dec-15 04:32N 59°36' E 023°07'1111.2
2014-Dec-15 03:34N 59°39' E 023°28'1111.2
2014-Dec-15 02:33N 59°42' E 023°49'1211.3
2014-Dec-15 01:28N 59°46' E 024°12'1111.7
2014-Dec-15 00:34N 59°48' E 024°33'5 8.1
2014-Dec-15 00:00N 59°48' E 024°42'5512.3 220 / 221009.010.8 3.5 2.4
2014-Dec-14 19:34N 60°01' E 026°28'11110.7
2014-Dec-14 09:11N 59°53' E 030°09'2 0.1
2014-Dec-12 19:19N 59°54' E 030°13'0 0.0
2014-Dec-11 10:33N 59°53' E 030°13'1 1.0
2014-Dec-11 09:32N 59°53' E 030°12'0 0.0
2014-Dec-11 08:29N 59°53' E 030°12'0 0.0
2014-Dec-11 07:29N 59°53' E 030°12'0 0.0
2014-Dec-11 02:32N 59°53' E 030°12'  

Dump ship's entire track history